Lazy Lake, Florida
Current Conditions -  °F | °C
As of 6:53 PM on Sunday 23 Nov 2014 (Local Time) from KFXE Reporting Station
Scattered Clouds Scattered Clouds  
Wind Chill: 79°   Ceiling: Unl
Heat Index: 82°   Visibility: 10mi
Dew Point: 74°   Wind: 6mph
Humidity: 84%   Direction: 150°SSE
Pressure: 29.94"   Gusts: NA
Location:  26.1532°N, 80.1262°W
Report Text: KFXE 232353Z 15005KT 10SM FEW017 SCT023 SCT028 26/23 A2994 RMK AO2 RAB07E53 SLP141 P0000 60000 T02610233 10283 20261 53006 $
Loading
Personal Weather Stations






























Interactive Weather Map New forecast layout! Learn more

10-Day Weather Forecast

Advertisements
Track Severe Weather on mobile